Terminal Aerodrome Forecast
Issued by NWS

Home | Current Version | Previous Version | Text Only | Print | Product List | Glossary Off
Versions: 1 2 3 4 5 6 7 8 9 10 11 12 13 14 15 16 17 18 19 20 21

682
FTUS43 KICT 250729 AAA
TAFCNU
TAF AMD
KCNU 250729Z 2507/2606 35011KT P6SM VCSH SCT050 OVC080
     FM251000 35015KT P6SM VCSH OVC008
     FM251800 34015KT P6SM OVC015=

USA.gov is the U.S. government's official web portal to all federal, state and local government web resources and services.